createdAt,value
2022-09-04T00:04:45.616Z,13.59
2022-09-04T00:10:01.835Z,13.46
2022-09-04T00:15:10.507Z,13.42
2022-09-04T00:20:34.184Z,13.61
2022-09-04T00:25:44.620Z,13.77
2022-09-04T00:30:54.263Z,13.86
2022-09-04T00:36:04.091Z,13.75
2022-09-04T00:41:16.449Z,13.86
2022-09-04T00:46:38.159Z,13.80
2022-09-04T00:51:53.277Z,13.88
2022-09-04T00:57:45.233Z,13.87
2022-09-04T01:03:04.532Z,13.85
2022-09-04T01:08:21.436Z,13.61
2022-09-04T01:13:33.920Z,13.50
2022-09-04T01:18:46.721Z,13.62
2022-09-04T01:24:19.665Z,13.72
2022-09-04T01:29:50.108Z,13.78
2022-09-04T01:35:03.475Z,13.76
2022-09-04T01:40:23.321Z,13.62
2022-09-04T01:46:20.099Z,13.63
2022-09-04T01:51:34.168Z,13.71
2022-09-04T01:56:45.294Z,13.76
2022-09-04T02:01:54.801Z,13.70
2022-09-04T02:07:10.410Z,13.50
2022-09-04T02:12:24.766Z,13.59
2022-09-04T02:17:39.455Z,13.54
2022-09-04T02:22:55.746Z,13.62
2022-09-04T02:28:11.291Z,13.58
2022-09-04T02:33:23.691Z,13.49
2022-09-04T02:38:33.565Z,13.59
2022-09-04T02:43:47.660Z,13.62
2022-09-04T02:49:07.874Z,13.44
2022-09-04T02:54:22.445Z,13.57
2022-09-04T02:59:36.215Z,13.58
2022-09-04T03:04:50.047Z,13.46
2022-09-04T03:10:02.367Z,13.58
2022-09-04T03:15:15.491Z,13.57
2022-09-04T03:20:23.201Z,13.36
2022-09-04T03:26:00.675Z,13.47
2022-09-04T03:31:14.656Z,13.35
2022-09-04T03:36:26.104Z,13.20
2022-09-04T03:41:38.858Z,13.35
2022-09-04T03:46:57.970Z,13.38
2022-09-04T03:52:09.741Z,13.40
2022-09-04T03:57:24.807Z,13.42
2022-09-04T04:02:38.327Z,13.44
2022-09-04T04:07:51.389Z,13.33
2022-09-04T04:13:14.592Z,13.37
2022-09-04T04:18:35.896Z,13.39
2022-09-04T04:24:07.234Z,13.32
2022-09-04T04:29:34.786Z,13.36
2022-09-04T04:34:57.047Z,13.11
2022-09-04T04:40:08.060Z,13.24
2022-09-04T04:45:41.537Z,13.24
2022-09-04T04:50:51.777Z,13.17
2022-09-04T04:55:59.031Z,13.16
2022-09-04T05:01:16.070Z,13.26
2022-09-04T05:06:26.142Z,13.55
2022-09-04T05:11:38.717Z,13.90
2022-09-04T05:16:56.007Z,14.10
2022-09-04T05:22:09.272Z,14.04
2022-09-04T05:27:50.983Z,13.88
2022-09-04T05:32:59.844Z,14.12
2022-09-04T05:38:10.020Z,14.54
2022-09-04T05:43:25.620Z,14.76
2022-09-04T05:48:39.199Z,14.96
2022-09-04T05:54:14.752Z,15.22
2022-09-04T05:59:51.573Z,15.48
2022-09-04T06:05:07.184Z,15.99
2022-09-04T06:10:19.012Z,16.32
2022-09-04T06:15:36.421Z,17.03
2022-09-04T06:21:03.586Z,17.15
2022-09-04T06:26:21.199Z,17.67
2022-09-04T06:31:54.954Z,18.11
2022-09-04T06:37:08.307Z,17.36
2022-09-04T06:42:27.043Z,17.46
2022-09-04T06:47:42.678Z,17.57
2022-09-04T06:53:04.169Z,18.44
2022-09-04T06:58:21.953Z,19.04
2022-09-04T07:03:39.176Z,18.93
2022-09-04T07:08:58.825Z,18.95
2022-09-04T07:14:17.893Z,18.42
2022-09-04T07:19:44.602Z,18.84
2022-09-04T07:25:13.808Z,19.12
2022-09-04T07:30:20.083Z,19.52
2022-09-04T07:35:36.353Z,18.69
2022-09-04T07:40:46.028Z,18.69
2022-09-04T07:45:58.659Z,18.15
2022-09-04T07:51:10.664Z,18.42
2022-09-04T07:56:20.052Z,18.54
2022-09-04T08:01:49.402Z,17.62
2022-09-04T08:06:58.824Z,17.72
2022-09-04T08:12:18.771Z,18.60
2022-09-04T08:17:43.238Z,19.22
2022-09-04T08:22:58.105Z,18.93
2022-09-04T08:28:17.595Z,18.19
2022-09-04T08:33:32.567Z,18.19
2022-09-04T08:38:46.734Z,17.19
2022-09-04T08:44:41.006Z,18.08
2022-09-04T08:50:18.708Z,17.89
2022-09-04T08:55:37.707Z,18.37
2022-09-04T09:01:00.227Z,20.35
2022-09-04T09:06:35.240Z,20.58
2022-09-04T09:12:17.812Z,20.62
2022-09-04T09:17:37.357Z,20.99
2022-09-04T09:23:14.856Z,20.94
2022-09-04T09:28:54.604Z,21.87
2022-09-04T09:34:21.128Z,22.10
2022-09-04T09:39:58.008Z,22.35
2022-09-04T09:45:42.014Z,21.17
2022-09-04T09:51:18.840Z,20.92
2022-09-04T09:56:53.734Z,20.84
2022-09-04T10:02:33.294Z,21.55
2022-09-04T10:08:35.358Z,22.05
2022-09-04T10:14:25.026Z,22.87
2022-09-04T10:19:58.318Z,21.75
2022-09-04T10:25:32.907Z,21.87
2022-09-04T10:30:59.900Z,22.64
2022-09-04T10:36:17.055Z,22.64
2022-09-04T10:41:41.079Z,22.08
2022-09-04T10:46:56.789Z,22.18
2022-09-04T10:52:14.806Z,23.15
2022-09-04T10:57:37.380Z,21.94
2022-09-04T11:03:07.089Z,22.63
2022-09-04T11:08:39.077Z,21.92
2022-09-04T11:14:06.544Z,22.33
2022-09-04T11:19:37.823Z,22.41
2022-09-04T11:25:25.465Z,22.78
2022-09-04T11:30:48.075Z,22.85
2022-09-04T11:36:16.134Z,23.21
2022-09-04T11:41:50.888Z,23.55
2022-09-04T11:47:24.510Z,23.86
2022-09-04T11:52:40.589Z,23.73
2022-09-04T11:57:59.636Z,24.15
2022-09-04T12:03:31.987Z,24.17
2022-09-04T12:09:08.538Z,23.65
2022-09-04T12:14:22.670Z,24.13
2022-09-04T12:19:54.652Z,23.74
2022-09-04T12:25:33.311Z,24.87
2022-09-04T12:30:50.518Z,24.06
2022-09-04T12:36:38.054Z,23.74
2022-09-04T12:41:54.491Z,24.49
2022-09-04T12:47:14.138Z,22.50
2022-09-04T12:52:26.083Z,23.13
2022-09-04T12:57:39.922Z,23.47
2022-09-04T13:03:04.790Z,23.56
2022-09-04T13:08:24.535Z,23.47
2022-09-04T13:13:43.292Z,23.68
2022-09-04T13:19:00.498Z,24.01
2022-09-04T13:24:16.062Z,24.17
2022-09-04T13:29:33.307Z,23.59
2022-09-04T13:35:00.433Z,24.17
2022-09-04T13:40:22.268Z,24.22
2022-09-04T13:45:29.581Z,24.56
2022-09-04T13:50:41.140Z,24.08
2022-09-04T13:55:50.373Z,23.05
2022-09-04T14:01:00.321Z,22.87
2022-09-04T14:06:05.524Z,23.51
2022-09-04T14:11:30.213Z,23.44
2022-09-04T14:16:36.757Z,23.62
2022-09-04T14:21:55.337Z,23.15
2022-09-04T14:27:06.882Z,23.39
2022-09-04T14:32:22.750Z,23.66
2022-09-04T14:37:48.401Z,23.27
2022-09-04T14:42:58.281Z,24.13
2022-09-04T14:48:07.196Z,24.26
2022-09-04T14:53:11.508Z,23.85
2022-09-04T14:58:21.055Z,24.12
2022-09-04T15:03:29.696Z,24.37
2022-09-04T15:08:40.153Z,24.28
2022-09-04T15:13:53.809Z,24.00
2022-09-04T15:19:05.149Z,24.06
2022-09-04T15:24:16.778Z,23.72
2022-09-04T15:29:27.914Z,23.75
2022-09-04T15:34:32.776Z,23.17
2022-09-04T15:39:45.156Z,23.23
2022-09-04T15:44:49.066Z,23.19
2022-09-04T15:49:56.577Z,23.41
2022-09-04T15:55:12.157Z,22.76
2022-09-04T16:00:17.046Z,23.03
2022-09-04T16:05:28.296Z,22.75
2022-09-04T16:10:45.557Z,22.53
2022-09-04T16:15:49.319Z,22.37
2022-09-04T16:20:59.053Z,22.30
2022-09-04T16:26:11.393Z,22.37
2022-09-04T16:31:23.780Z,22.42
2022-09-04T16:36:36.175Z,22.07
2022-09-04T16:41:47.759Z,22.19
2022-09-04T16:47:03.037Z,22.10
2022-09-04T16:52:26.923Z,22.20
2022-09-04T16:57:37.728Z,22.13
2022-09-04T17:02:47.051Z,22.01
2022-09-04T17:07:56.276Z,21.76
2022-09-04T17:13:12.704Z,21.67
2022-09-04T17:18:21.938Z,21.53
2022-09-04T17:28:56.115Z,21.43
2022-09-04T17:29:34.484Z,21.32
2022-09-04T17:40:43.498Z,21.11
2022-09-04T17:40:50.563Z,21.05
2022-09-04T17:45:59.395Z,21.00
2022-09-04T17:51:05.382Z,20.78
2022-09-04T17:56:16.510Z,20.60
2022-09-04T18:01:26.436Z,20.55
2022-09-04T18:06:40.483Z,20.38
2022-09-04T18:11:59.904Z,20.28
2022-09-04T18:17:12.146Z,20.15
2022-09-04T18:22:33.455Z,20.04
2022-09-04T18:27:46.152Z,19.95
2022-09-04T18:37:12.713Z,19.89
2022-09-04T18:38:20.595Z,19.76
2022-09-04T18:50:20.219Z,19.65
2022-09-04T18:50:32.335Z,19.58
2022-09-04T18:54:32.379Z,19.42
2022-09-04T18:59:38.785Z,19.23
2022-09-04T19:04:52.225Z,19.23
2022-09-04T19:10:13.088Z,19.17
2022-09-04T19:15:51.764Z,19.05
2022-09-04T19:21:14.447Z,18.89
2022-09-04T19:26:26.510Z,18.92
2022-09-04T19:31:36.206Z,18.81
2022-09-04T19:36:47.611Z,18.58
2022-09-04T19:46:03.965Z,18.37
2022-09-04T19:47:32.256Z,18.45
2022-09-04T19:53:36.808Z,18.28
2022-09-04T19:58:09.315Z,18.11
2022-09-04T20:03:29.616Z,17.91
2022-09-04T20:08:40.986Z,17.97
2022-09-04T20:13:48.870Z,17.91
2022-09-04T20:19:03.728Z,17.92
2022-09-04T20:24:14.864Z,17.87
2022-09-04T20:29:22.918Z,17.78
2022-09-04T20:34:36.449Z,17.69
2022-09-04T20:39:48.867Z,17.53
2022-09-04T20:48:25.737Z,17.33
2022-09-04T20:53:04.677Z,17.30
2022-09-04T20:56:07.965Z,17.12
2022-09-04T21:03:21.971Z,17.04
2022-09-04T21:06:52.020Z,16.88
2022-09-04T21:12:14.003Z,16.78
2022-09-04T21:17:53.552Z,16.65
2022-09-04T21:23:18.811Z,16.65
2022-09-04T21:28:53.279Z,16.50
2022-09-04T21:34:21.149Z,16.54
2022-09-04T21:39:52.255Z,16.37
2022-09-04T21:45:20.730Z,16.38
2022-09-04T21:50:54.060Z,16.23
2022-09-04T22:00:30.721Z,16.14
2022-09-04T22:02:39.910Z,16.06
2022-09-04T22:08:54.719Z,15.93
2022-09-04T22:13:38.395Z,15.85
2022-09-04T22:18:54.649Z,15.73
2022-09-04T22:24:39.662Z,15.77
2022-09-04T22:29:52.296Z,15.58
2022-09-04T22:35:24.190Z,15.44
2022-09-04T22:40:56.870Z,15.39
2022-09-04T22:46:33.537Z,15.41
2022-09-04T22:52:09.793Z,15.36
2022-09-04T22:57:20.750Z,15.34
2022-09-04T23:03:08.144Z,15.29
2022-09-04T23:13:42.180Z,15.01
2022-09-04T23:14:18.653Z,15.17
2022-09-04T23:24:00.066Z,14.85
2022-09-04T23:26:50.177Z,14.93
2022-09-04T23:31:19.742Z,14.75
2022-09-04T23:37:01.674Z,14.75
2022-09-04T23:42:27.051Z,14.68
2022-09-04T23:48:14.736Z,14.61
2022-09-04T23:53:29.653Z,14.55
2022-09-04T23:59:03.449Z,14.54
